createdAt,value
2018-05-03T00:03:39.344Z,1004.77
2018-05-03T00:08:34.304Z,1004.76
2018-05-03T00:13:30.410Z,1004.82
2018-05-03T00:23:34.095Z,1004.78
2018-05-03T00:28:29.504Z,1004.67
2018-05-03T00:33:31.756Z,1004.72
2018-05-03T00:38:27.757Z,1004.80
2018-05-03T00:43:29.651Z,1004.83
2018-05-03T00:48:24.942Z,1004.93
2018-05-03T00:58:25.255Z,1004.95
2018-05-03T01:03:25.953Z,1005.04
2018-05-03T01:08:20.774Z,1005.06
2018-05-03T01:13:20.457Z,1005.09
2018-05-03T01:18:19.067Z,1005.11
2018-05-03T01:23:14.121Z,1005.15
2018-05-03T01:28:09.833Z,1005.31
2018-05-03T01:33:06.700Z,1005.37
2018-05-03T01:38:02.104Z,1005.38
2018-05-03T01:42:58.653Z,1005.46
2018-05-03T01:47:53.924Z,1005.56
2018-05-03T01:52:50.200Z,1005.66
2018-05-03T01:57:45.810Z,1005.69
2018-05-03T02:02:41.532Z,1005.62
2018-05-03T02:07:37.559Z,1005.67
2018-05-03T02:12:34.032Z,1005.59
2018-05-03T02:17:29.859Z,1005.73
2018-05-03T02:22:29.522Z,1005.88
2018-05-03T02:27:28.448Z,1006.04
2018-05-03T02:32:23.372Z,1006.01
2018-05-03T02:37:19.807Z,1006.08
2018-05-03T02:42:19.720Z,1006.15
2018-05-03T02:47:14.923Z,1006.15
2018-05-03T02:52:11.460Z,1006.29
2018-05-03T02:57:07.403Z,1006.34
2018-05-03T03:02:03.114Z,1006.52
2018-05-03T03:06:59.052Z,1006.57
2018-05-03T03:11:55.629Z,1006.52
2018-05-03T03:16:52.459Z,1006.68
2018-05-03T03:21:48.060Z,1006.68
2018-05-03T03:26:43.830Z,1006.71
2018-05-03T03:31:40.859Z,1006.77
2018-05-03T03:36:36.360Z,1006.87
2018-05-03T03:41:32.208Z,1006.86
2018-05-03T03:46:28.127Z,1006.88
2018-05-03T03:51:23.943Z,1006.89
2018-05-03T03:56:21.115Z,1006.95
2018-05-03T04:01:17.440Z,1006.98
2018-05-03T04:06:13.225Z,1007.03
2018-05-03T04:11:12.988Z,1007.04
2018-05-03T04:16:08.856Z,1007.22
2018-05-03T04:21:04.193Z,1007.15
2018-05-03T04:26:05.260Z,1007.16
2018-05-03T04:31:04.026Z,1007.42
2018-05-03T04:36:02.812Z,1007.48
2018-05-03T04:40:57.600Z,1007.69
2018-05-03T04:45:57.240Z,1007.62
2018-05-03T04:50:56.492Z,1007.75
2018-05-03T04:55:51.506Z,1007.87
2018-05-03T05:00:48.300Z,1007.84
2018-05-03T05:05:43.618Z,1008.11
2018-05-03T05:10:44.790Z,1008.13
2018-05-03T05:15:44.064Z,1008.17
2018-05-03T05:20:40.331Z,1008.24
2018-05-03T05:25:35.783Z,1008.34
2018-05-03T05:30:32.933Z,1008.38
2018-05-03T05:35:29.774Z,1008.55
2018-05-03T05:40:25.977Z,1008.59
2018-05-03T05:45:21.733Z,1008.61
2018-05-03T05:50:23.123Z,1008.91
2018-05-03T05:55:18.042Z,1008.96
2018-05-03T06:00:18.009Z,1009.01
2018-05-03T06:05:16.987Z,1009.07
2018-05-03T06:10:15.990Z,1009.17
2018-05-03T06:15:12.150Z,1009.16
2018-05-03T06:20:07.545Z,1009.31
2018-05-03T06:25:04.541Z,1009.30
2018-05-03T06:30:03.949Z,1009.35
2018-05-03T06:34:59.068Z,1009.39
2018-05-03T06:39:55.532Z,1009.50
2018-05-03T06:44:51.234Z,1009.62
2018-05-03T06:49:48.167Z,1009.66
2018-05-03T06:54:43.568Z,1009.62
2018-05-03T06:59:40.395Z,1009.67
2018-05-03T07:04:37.040Z,1009.74
2018-05-03T07:09:32.810Z,1009.74
2018-05-03T07:14:33.307Z,1009.82
2018-05-03T07:19:28.679Z,1009.78
2018-05-03T07:24:26.055Z,1009.87
2018-05-03T07:29:22.628Z,1009.94
2018-05-03T07:34:18.342Z,1009.99
2018-05-03T07:39:15.213Z,1010.12
2018-05-03T07:44:15.375Z,1010.16
2018-05-03T07:49:15.120Z,1010.19
2018-05-03T07:54:11.662Z,1010.24
2018-05-03T07:59:08.377Z,1010.37
2018-05-03T08:04:08.984Z,1010.27
2018-05-03T08:09:03.287Z,1010.34
2018-05-03T08:13:59.028Z,1010.38
2018-05-03T08:18:58.741Z,1010.60
2018-05-03T08:23:55.339Z,1010.50
2018-05-03T08:28:56.025Z,1010.69
2018-05-03T08:33:51.760Z,1010.82
2018-05-03T08:38:48.879Z,1010.87
2018-05-03T08:43:44.341Z,1010.68
2018-05-03T08:48:39.654Z,1010.71
2018-05-03T08:53:39.581Z,1010.84
2018-05-03T08:58:34.226Z,1010.88
2018-05-03T09:03:34.752Z,1010.98
2018-05-03T09:08:29.153Z,1011.02
2018-05-03T09:13:29.359Z,1011.03
2018-05-03T09:18:24.390Z,1011.12
2018-05-03T09:23:20.368Z,1011.13
2018-05-03T09:28:20.293Z,1011.17
2018-05-03T09:33:14.752Z,1011.21
2018-05-03T09:38:14.382Z,1011.16
2018-05-03T09:43:09.704Z,1011.39
2018-05-03T09:48:08.133Z,1011.39
2018-05-03T09:53:09.020Z,1011.32
2018-05-03T09:58:03.867Z,1011.46
2018-05-03T10:03:00.489Z,1011.63
2018-05-03T10:07:57.746Z,1011.65
2018-05-03T10:12:53.746Z,1011.59
2018-05-03T10:17:50.458Z,1011.63
2018-05-03T10:22:46.971Z,1011.57
2018-05-03T10:27:46.888Z,1011.52
2018-05-03T10:32:46.386Z,1011.70
2018-05-03T10:37:46.899Z,1011.71
2018-05-03T10:42:45.390Z,1011.61
2018-05-03T10:47:45.452Z,1011.74
2018-05-03T10:52:46.473Z,1011.67
2018-05-03T10:57:42.838Z,1011.59
2018-05-03T11:02:40.062Z,1011.57
2018-05-03T11:07:35.115Z,1011.53
2018-05-03T11:12:30.146Z,1011.56
2018-05-03T11:17:25.591Z,1011.56
2018-05-03T11:22:22.330Z,1011.59
2018-05-03T11:27:23.008Z,1011.66
2018-05-03T11:32:18.280Z,1011.62
2018-05-03T11:37:14.566Z,1011.74
2018-05-03T11:42:13.315Z,1011.67
2018-05-03T11:47:07.348Z,1011.76
2018-05-03T11:52:05.750Z,1011.68
2018-05-03T11:57:01.135Z,1011.76
2018-05-03T12:01:55.372Z,1011.77
2018-05-03T12:06:50.324Z,1011.76
2018-05-03T12:11:49.697Z,1011.85
2018-05-03T12:16:48.388Z,1011.82
2018-05-03T12:21:43.524Z,1011.82
2018-05-03T12:26:46.245Z,1011.81
2018-05-03T12:31:42.251Z,1011.83
2018-05-03T12:36:37.000Z,1011.83
2018-05-03T12:41:33.102Z,1011.81
2018-05-03T12:46:29.079Z,1011.88
2018-05-03T12:51:29.467Z,1011.88
2018-05-03T12:56:29.556Z,1011.82
2018-05-03T13:01:29.714Z,1011.77
2018-05-03T13:06:25.926Z,1011.92
2018-05-03T13:11:22.261Z,1011.91
2018-05-03T13:16:21.867Z,1011.87
2018-05-03T13:21:18.396Z,1011.88
2018-05-03T13:26:17.894Z,1011.90
2018-05-03T13:31:15.432Z,1011.94
2018-05-03T13:36:13.692Z,1011.92
2018-05-03T13:41:12.523Z,1011.87
2018-05-03T13:46:07.036Z,1011.82
2018-05-03T13:51:03.774Z,1011.86
2018-05-03T13:55:59.945Z,1011.89
2018-05-03T14:00:55.857Z,1011.81
2018-05-03T14:05:52.883Z,1011.94
2018-05-03T14:10:48.458Z,1012.02
2018-05-03T14:15:48.431Z,1011.99
2018-05-03T14:20:44.778Z,1011.94
2018-05-03T14:25:40.588Z,1011.81
2018-05-03T14:30:36.499Z,1011.84
2018-05-03T14:35:32.691Z,1011.87
2018-05-03T14:40:32.772Z,1011.84
2018-05-03T14:45:28.559Z,1011.95
2018-05-03T14:50:23.839Z,1011.95
2018-05-03T14:55:19.532Z,1011.88
2018-05-03T15:00:15.549Z,1011.99
2018-05-03T15:05:16.513Z,1012.03
2018-05-03T15:10:12.351Z,1012.10
2018-05-03T15:15:07.736Z,1011.91
2018-05-03T15:20:08.601Z,1011.93
2018-05-03T15:25:03.486Z,1011.91
2018-05-03T15:29:59.905Z,1011.95
2018-05-03T15:34:56.538Z,1011.98
2018-05-03T15:39:52.588Z,1012.00
2018-05-03T15:44:48.626Z,1011.93
2018-05-03T15:49:44.872Z,1012.00
2018-05-03T15:54:44.806Z,1011.94
2018-05-03T15:59:43.727Z,1012.00
2018-05-03T16:04:38.597Z,1012.01
2018-05-03T16:09:33.884Z,1012.04
2018-05-03T16:14:29.196Z,1012.09
2018-05-03T16:19:28.828Z,1012.10
2018-05-03T16:24:23.479Z,1012.01
2018-05-03T16:29:19.136Z,1012.12
2018-05-03T16:34:14.578Z,1012.15
2018-05-03T16:39:14.517Z,1012.14
2018-05-03T16:44:10.454Z,1012.11
2018-05-03T16:49:09.942Z,1012.21
2018-05-03T16:54:04.906Z,1012.24
2018-05-03T16:59:00.746Z,1012.30
2018-05-03T17:03:56.431Z,1012.37
2018-05-03T17:08:52.364Z,1012.40
2018-05-03T17:13:48.356Z,1012.33
2018-05-03T17:18:44.230Z,1012.46
2018-05-03T17:23:40.178Z,1012.46
2018-05-03T17:28:40.126Z,1012.57
2018-05-03T17:33:39.285Z,1012.52
2018-05-03T17:38:34.922Z,1012.61
2018-05-03T17:43:35.039Z,1012.70
2018-05-03T17:48:29.908Z,1012.71
2018-05-03T17:53:25.768Z,1012.74
2018-05-03T17:58:21.922Z,1012.93
2018-05-03T18:03:17.687Z,1012.97
2018-05-03T18:08:13.525Z,1013.00
2018-05-03T18:13:09.388Z,1013.08
2018-05-03T18:18:06.090Z,1013.18
2018-05-03T18:23:01.631Z,1013.23
2018-05-03T18:27:57.698Z,1013.30
2018-05-03T18:32:58.436Z,1013.35
2018-05-03T18:37:54.071Z,1013.47
2018-05-03T18:42:54.092Z,1013.66
2018-05-03T18:47:49.117Z,1013.61
2018-05-03T18:52:48.718Z,1013.65
2018-05-03T18:57:43.401Z,1013.72
2018-05-03T19:02:39.017Z,1013.85
2018-05-03T19:07:34.822Z,1013.97
2018-05-03T19:12:30.937Z,1013.99
2018-05-03T19:17:26.851Z,1013.98
2018-05-03T19:22:22.497Z,1014.07
2018-05-03T19:27:18.220Z,1014.12
2018-05-03T19:32:14.157Z,1014.25
2018-05-03T19:37:14.041Z,1014.38
2018-05-03T19:42:08.960Z,1014.33
2018-05-03T19:47:08.739Z,1014.41
2018-05-03T19:52:04.441Z,1014.44
2018-05-03T19:57:00.480Z,1014.56
2018-05-03T20:01:56.218Z,1014.50
2018-05-03T20:06:52.327Z,1014.73
2018-05-03T20:11:51.814Z,1014.75
2018-05-03T20:16:47.195Z,1014.72
2018-05-03T20:21:43.830Z,1014.72
2018-05-03T20:26:39.228Z,1014.74
2018-05-03T20:31:38.886Z,1014.89
2018-05-03T20:36:35.099Z,1014.81
2018-05-03T20:41:30.424Z,1014.83
2018-05-03T20:46:30.329Z,1014.96
2018-05-03T20:51:25.355Z,1014.98
2018-05-03T20:56:21.137Z,1015.02
2018-05-03T21:01:16.958Z,1014.90
2018-05-03T21:06:13.566Z,1015.06
2018-05-03T21:11:10.327Z,1015.01
2018-05-03T21:16:06.904Z,1015.08
2018-05-03T21:21:03.025Z,1015.07
2018-05-03T21:26:03.416Z,1015.17
2018-05-03T21:30:58.154Z,1015.23
2018-05-03T21:35:57.847Z,1015.22
2018-05-03T21:40:52.413Z,1015.24
2018-05-03T21:45:48.343Z,1015.26
2018-05-03T21:50:45.141Z,1015.18
2018-05-03T21:55:40.973Z,1015.27
2018-05-03T22:00:36.844Z,1015.19
2018-05-03T22:05:36.384Z,1015.21
2018-05-03T22:10:32.238Z,1015.21
2018-05-03T22:15:28.564Z,1015.30
2018-05-03T22:20:23.960Z,1015.27
2018-05-03T22:25:24.765Z,1015.34
2018-05-03T22:30:19.386Z,1015.38
2018-05-03T22:35:16.122Z,1015.31
2018-05-03T22:40:15.634Z,1015.44
2018-05-03T22:45:11.846Z,1015.35
2018-05-03T22:50:07.310Z,1015.38
2018-05-03T22:55:04.800Z,1015.44
2018-05-03T23:00:00.902Z,1015.40
2018-05-03T23:04:56.273Z,1015.26
2018-05-03T23:09:52.876Z,1015.31
2018-05-03T23:14:48.660Z,1015.26
2018-05-03T23:19:45.110Z,1015.29
2018-05-03T23:24:41.453Z,1015.34
2018-05-03T23:29:36.783Z,1015.39
2018-05-03T23:34:32.908Z,1015.40
2018-05-03T23:39:29.570Z,1015.47
2018-05-03T23:44:26.081Z,1015.41
2018-05-03T23:49:21.872Z,1015.47
2018-05-03T23:54:18.667Z,1015.33
2018-05-03T23:59:18.013Z,1015.40
